sensor_id;sensor_type;location;lat;lon;timestamp;P1;durP1;ratioP1;P2;durP2;ratioP2
52180;SDS011;38158;53.338;6.514;2022-09-09T00:03:40;14.13;;;8.40;;
52180;SDS011;38158;53.338;6.514;2022-09-09T00:06:19;10.40;;;7.82;;
52180;SDS011;38158;53.338;6.514;2022-09-09T00:09:01;13.15;;;8.77;;
52180;SDS011;38158;53.338;6.514;2022-09-09T00:11:59;11.85;;;8.35;;
52180;SDS011;38158;53.338;6.514;2022-09-09T00:14:48;11.63;;;8.07;;
52180;SDS011;38158;53.338;6.514;2022-09-09T00:20:12;9.55;;;7.88;;
52180;SDS011;38158;53.338;6.514;2022-09-09T00:22:38;11.00;;;8.00;;
52180;SDS011;38158;53.338;6.514;2022-09-09T00:25:42;10.77;;;7.43;;
52180;SDS011;38158;53.338;6.514;2022-09-09T00:28:22;13.02;;;8.43;;
52180;SDS011;38158;53.338;6.514;2022-09-09T00:30:49;14.80;;;8.85;;
52180;SDS011;38158;53.338;6.514;2022-09-09T00:33:17;12.07;;;8.32;;
52180;SDS011;38158;53.338;6.514;2022-09-09T00:35:48;12.52;;;7.68;;
52180;SDS011;38158;53.338;6.514;2022-09-09T00:38:18;10.75;;;8.45;;
52180;SDS011;38158;53.338;6.514;2022-09-09T00:40:53;13.00;;;8.40;;
52180;SDS011;38158;53.338;6.514;2022-09-09T00:43:32;13.65;;;8.57;;
52180;SDS011;38158;53.338;6.514;2022-09-09T00:48:35;12.45;;;7.93;;
52180;SDS011;38158;53.338;6.514;2022-09-09T00:51:29;13.98;;;7.53;;
52180;SDS011;38158;53.338;6.514;2022-09-09T00:54:33;13.77;;;8.27;;
52180;SDS011;38158;53.338;6.514;2022-09-09T00:57:38;12.85;;;8.52;;
52180;SDS011;38158;53.338;6.514;2022-09-09T01:02:53;14.82;;;8.35;;
52180;SDS011;38158;53.338;6.514;2022-09-09T01:07:58;16.10;;;9.93;;
52180;SDS011;38158;53.338;6.514;2022-09-09T01:10:35;17.92;;;9.50;;
52180;SDS011;38158;53.338;6.514;2022-09-09T01:13:09;17.33;;;9.40;;
52180;SDS011;38158;53.338;6.514;2022-09-09T01:15:40;15.45;;;9.82;;
52180;SDS011;38158;53.338;6.514;2022-09-09T01:18:10;14.43;;;9.65;;
52180;SDS011;38158;53.338;6.514;2022-09-09T01:20:43;16.33;;;9.80;;
52180;SDS011;38158;53.338;6.514;2022-09-09T01:28:55;14.85;;;9.55;;
52180;SDS011;38158;53.338;6.514;2022-09-09T01:31:28;17.98;;;9.55;;
52180;SDS011;38158;53.338;6.514;2022-09-09T01:33:58;15.37;;;9.00;;
52180;SDS011;38158;53.338;6.514;2022-09-09T01:36:32;14.13;;;9.43;;
52180;SDS011;38158;53.338;6.514;2022-09-09T01:39:04;16.75;;;9.73;;
52180;SDS011;38158;53.338;6.514;2022-09-09T01:41:29;15.60;;;8.80;;
52180;SDS011;38158;53.338;6.514;2022-09-09T01:43:55;17.15;;;8.95;;
52180;SDS011;38158;53.338;6.514;2022-09-09T01:46:22;16.40;;;9.95;;
52180;SDS011;38158;53.338;6.514;2022-09-09T01:48:49;14.43;;;8.90;;
52180;SDS011;38158;53.338;6.514;2022-09-09T01:51:17;13.85;;;9.13;;
52180;SDS011;38158;53.338;6.514;2022-09-09T01:53:43;15.15;;;9.68;;
52180;SDS011;38158;53.338;6.514;2022-09-09T02:04:46;18.02;;;9.23;;
52180;SDS011;38158;53.338;6.514;2022-09-09T02:10:32;15.60;;;8.82;;
52180;SDS011;38158;53.338;6.514;2022-09-09T02:13:28;20.80;;;9.65;;
52180;SDS011;38158;53.338;6.514;2022-09-09T02:16:01;14.27;;;8.85;;
52180;SDS011;38158;53.338;6.514;2022-09-09T02:21:37;17.02;;;8.52;;
52180;SDS011;38158;53.338;6.514;2022-09-09T02:24:07;14.30;;;8.35;;
52180;SDS011;38158;53.338;6.514;2022-09-09T02:26:36;14.15;;;8.50;;
52180;SDS011;38158;53.338;6.514;2022-09-09T02:29:07;17.27;;;8.98;;
52180;SDS011;38158;53.338;6.514;2022-09-09T02:31:38;11.70;;;8.18;;
52180;SDS011;38158;53.338;6.514;2022-09-09T02:34:06;13.68;;;8.57;;
52180;SDS011;38158;53.338;6.514;2022-09-09T02:36:36;14.95;;;8.73;;
52180;SDS011;38158;53.338;6.514;2022-09-09T02:39:04;17.00;;;9.60;;
52180;SDS011;38158;53.338;6.514;2022-09-09T02:41:33;13.75;;;9.15;;
52180;SDS011;38158;53.338;6.514;2022-09-09T02:44:01;12.93;;;8.85;;
52180;SDS011;38158;53.338;6.514;2022-09-09T02:46:29;12.63;;;8.77;;
52180;SDS011;38158;53.338;6.514;2022-09-09T02:52:13;12.40;;;9.07;;
52180;SDS011;38158;53.338;6.514;2022-09-09T02:54:41;16.67;;;9.55;;
52180;SDS011;38158;53.338;6.514;2022-09-09T02:57:12;15.55;;;10.38;;
52180;SDS011;38158;53.338;6.514;2022-09-09T02:59:42;26.55;;;9.55;;
52180;SDS011;38158;53.338;6.514;2022-09-09T03:02:09;16.65;;;10.43;;
52180;SDS011;38158;53.338;6.514;2022-09-09T03:04:36;16.73;;;10.82;;
52180;SDS011;38158;53.338;6.514;2022-09-09T03:07:02;15.55;;;10.57;;
52180;SDS011;38158;53.338;6.514;2022-09-09T03:09:29;16.17;;;11.27;;
52180;SDS011;38158;53.338;6.514;2022-09-09T03:11:55;19.05;;;10.82;;
52180;SDS011;38158;53.338;6.514;2022-09-09T03:14:21;17.13;;;11.95;;
52180;SDS011;38158;53.338;6.514;2022-09-09T03:16:50;18.02;;;11.70;;
52180;SDS011;38158;53.338;6.514;2022-09-09T03:19:16;21.95;;;11.45;;
52180;SDS011;38158;53.338;6.514;2022-09-09T03:21:43;20.48;;;11.68;;
52180;SDS011;38158;53.338;6.514;2022-09-09T03:26:36;15.70;;;11.70;;
52180;SDS011;38158;53.338;6.514;2022-09-09T03:29:03;19.10;;;11.95;;
52180;SDS011;38158;53.338;6.514;2022-09-09T03:31:31;16.65;;;10.82;;
52180;SDS011;38158;53.338;6.514;2022-09-09T03:33:58;14.18;;;10.82;;
52180;SDS011;38158;53.338;6.514;2022-09-09T03:36:24;18.05;;;11.35;;
52180;SDS011;38158;53.338;6.514;2022-09-09T03:38:51;16.13;;;10.88;;
52180;SDS011;38158;53.338;6.514;2022-09-09T03:41:19;19.88;;;10.93;;
52180;SDS011;38158;53.338;6.514;2022-09-09T03:43:46;19.92;;;11.02;;
52180;SDS011;38158;53.338;6.514;2022-09-09T03:46:11;15.52;;;10.63;;
52180;SDS011;38158;53.338;6.514;2022-09-09T03:48:37;15.23;;;10.70;;
52180;SDS011;38158;53.338;6.514;2022-09-09T03:51:02;14.68;;;11.00;;
52180;SDS011;38158;53.338;6.514;2022-09-09T03:53:28;15.57;;;10.38;;
52180;SDS011;38158;53.338;6.514;2022-09-09T03:55:55;16.10;;;10.48;;
52180;SDS011;38158;53.338;6.514;2022-09-09T03:58:24;15.07;;;10.77;;
52180;SDS011;38158;53.338;6.514;2022-09-09T04:03:21;15.32;;;10.02;;
52180;SDS011;38158;53.338;6.514;2022-09-09T04:05:49;17.27;;;10.40;;
52180;SDS011;38158;53.338;6.514;2022-09-09T04:08:19;13.27;;;9.82;;
52180;SDS011;38158;53.338;6.514;2022-09-09T04:10:49;15.50;;;9.75;;
52180;SDS011;38158;53.338;6.514;2022-09-09T04:13:15;15.90;;;10.02;;
52180;SDS011;38158;53.338;6.514;2022-09-09T04:15:42;13.45;;;9.27;;
52180;SDS011;38158;53.338;6.514;2022-09-09T04:18:10;14.45;;;9.32;;
52180;SDS011;38158;53.338;6.514;2022-09-09T04:20:37;16.77;;;9.57;;
52180;SDS011;38158;53.338;6.514;2022-09-09T04:23:03;11.52;;;8.35;;
52180;SDS011;38158;53.338;6.514;2022-09-09T04:25:29;15.30;;;7.78;;
52180;SDS011;38158;53.338;6.514;2022-09-09T04:27:58;15.52;;;8.15;;
52180;SDS011;38158;53.338;6.514;2022-09-09T04:30:24;15.55;;;7.93;;
52180;SDS011;38158;53.338;6.514;2022-09-09T04:32:52;12.30;;;7.30;;
52180;SDS011;38158;53.338;6.514;2022-09-09T04:35:18;14.30;;;8.00;;
52180;SDS011;38158;53.338;6.514;2022-09-09T04:37:45;13.25;;;6.82;;
52180;SDS011;38158;53.338;6.514;2022-09-09T04:40:12;15.68;;;6.82;;
52180;SDS011;38158;53.338;6.514;2022-09-09T04:42:38;12.63;;;6.70;;
52180;SDS011;38158;53.338;6.514;2022-09-09T04:45:05;15.55;;;6.75;;
52180;SDS011;38158;53.338;6.514;2022-09-09T04:49:57;12.60;;;6.05;;
52180;SDS011;38158;53.338;6.514;2022-09-09T04:52:23;13.20;;;6.05;;
52180;SDS011;38158;53.338;6.514;2022-09-09T04:54:48;13.50;;;6.50;;
52180;SDS011;38158;53.338;6.514;2022-09-09T04:57:14;12.40;;;5.70;;
52180;SDS011;38158;53.338;6.514;2022-09-09T04:59:40;10.45;;;5.88;;
52180;SDS011;38158;53.338;6.514;2022-09-09T05:02:05;14.63;;;6.15;;
52180;SDS011;38158;53.338;6.514;2022-09-09T05:04:31;9.60;;;5.90;;
52180;SDS011;38158;53.338;6.514;2022-09-09T05:06:58;11.80;;;5.60;;
52180;SDS011;38158;53.338;6.514;2022-09-09T05:09:24;10.82;;;5.43;;
52180;SDS011;38158;53.338;6.514;2022-09-09T05:11:50;8.80;;;5.50;;
52180;SDS011;38158;53.338;6.514;2022-09-09T05:14:16;12.18;;;5.90;;
52180;SDS011;38158;53.338;6.514;2022-09-09T05:16:44;10.90;;;6.30;;
52180;SDS011;38158;53.338;6.514;2022-09-09T05:19:10;11.50;;;5.78;;
52180;SDS011;38158;53.338;6.514;2022-09-09T05:21:36;12.75;;;5.57;;
52180;SDS011;38158;53.338;6.514;2022-09-09T05:24:02;11.95;;;6.18;;
52180;SDS011;38158;53.338;6.514;2022-09-09T05:26:28;11.18;;;5.80;;
52180;SDS011;38158;53.338;6.514;2022-09-09T05:28:54;10.43;;;6.05;;
52180;SDS011;38158;53.338;6.514;2022-09-09T05:31:20;11.82;;;6.47;;
52180;SDS011;38158;53.338;6.514;2022-09-09T05:33:47;14.95;;;6.30;;
52180;SDS011;38158;53.338;6.514;2022-09-09T05:36:18;12.75;;;7.00;;
52180;SDS011;38158;53.338;6.514;2022-09-09T05:38:45;12.05;;;6.35;;
52180;SDS011;38158;53.338;6.514;2022-09-09T05:41:11;10.15;;;6.70;;
52180;SDS011;38158;53.338;6.514;2022-09-09T05:43:40;12.20;;;6.80;;
52180;SDS011;38158;53.338;6.514;2022-09-09T05:46:10;13.40;;;6.80;;
52180;SDS011;38158;53.338;6.514;2022-09-09T05:48:37;14.55;;;7.03;;
52180;SDS011;38158;53.338;6.514;2022-09-09T05:51:05;10.07;;;6.60;;
52180;SDS011;38158;53.338;6.514;2022-09-09T05:53:33;13.45;;;7.30;;
52180;SDS011;38158;53.338;6.514;2022-09-09T05:56:09;15.68;;;8.43;;
52180;SDS011;38158;53.338;6.514;2022-09-09T05:58:36;16.98;;;7.85;;
52180;SDS011;38158;53.338;6.514;2022-09-09T06:01:03;13.50;;;7.80;;
52180;SDS011;38158;53.338;6.514;2022-09-09T06:03:30;12.73;;;8.05;;
52180;SDS011;38158;53.338;6.514;2022-09-09T06:05:57;12.67;;;7.90;;
52180;SDS011;38158;53.338;6.514;2022-09-09T06:08:27;13.85;;;7.85;;
52180;SDS011;38158;53.338;6.514;2022-09-09T06:10:52;11.60;;;7.30;;
52180;SDS011;38158;53.338;6.514;2022-09-09T06:13:18;15.90;;;9.18;;
52180;SDS011;38158;53.338;6.514;2022-09-09T06:15:50;15.77;;;8.43;;
52180;SDS011;38158;53.338;6.514;2022-09-09T06:18:17;13.65;;;8.20;;
52180;SDS011;38158;53.338;6.514;2022-09-09T06:20:53;14.32;;;8.07;;
52180;SDS011;38158;53.338;6.514;2022-09-09T06:23:32;13.88;;;8.80;;
52180;SDS011;38158;53.338;6.514;2022-09-09T06:28:34;13.18;;;9.13;;
52180;SDS011;38158;53.338;6.514;2022-09-09T06:31:02;14.40;;;8.93;;
52180;SDS011;38158;53.338;6.514;2022-09-09T06:33:33;14.32;;;8.80;;
52180;SDS011;38158;53.338;6.514;2022-09-09T06:36:00;15.02;;;8.93;;
52180;SDS011;38158;53.338;6.514;2022-09-09T06:38:28;14.10;;;9.45;;
52180;SDS011;38158;53.338;6.514;2022-09-09T06:40:54;14.23;;;9.30;;
52180;SDS011;38158;53.338;6.514;2022-09-09T06:43:23;15.50;;;9.60;;
52180;SDS011;38158;53.338;6.514;2022-09-09T06:45:59;14.85;;;9.43;;
52180;SDS011;38158;53.338;6.514;2022-09-09T06:51:03;13.45;;;8.70;;
52180;SDS011;38158;53.338;6.514;2022-09-09T06:53:30;16.08;;;9.65;;
52180;SDS011;38158;53.338;6.514;2022-09-09T06:55:59;14.57;;;8.82;;
52180;SDS011;38158;53.338;6.514;2022-09-09T06:58:27;13.27;;;8.90;;
52180;SDS011;38158;53.338;6.514;2022-09-09T07:01:01;15.73;;;8.63;;
52180;SDS011;38158;53.338;6.514;2022-09-09T07:03:28;14.73;;;8.75;;
52180;SDS011;38158;53.338;6.514;2022-09-09T07:05:54;16.33;;;8.40;;
52180;SDS011;38158;53.338;6.514;2022-09-09T07:08:21;13.35;;;8.55;;
52180;SDS011;38158;53.338;6.514;2022-09-09T07:10:47;15.90;;;8.87;;
52180;SDS011;38158;53.338;6.514;2022-09-09T07:13:13;13.63;;;8.70;;
52180;SDS011;38158;53.338;6.514;2022-09-09T07:15:40;13.85;;;8.25;;
52180;SDS011;38158;53.338;6.514;2022-09-09T07:18:07;11.25;;;7.85;;
52180;SDS011;38158;53.338;6.514;2022-09-09T07:20:35;11.40;;;7.40;;
52180;SDS011;38158;53.338;6.514;2022-09-09T07:23:00;15.18;;;7.90;;
52180;SDS011;38158;53.338;6.514;2022-09-09T07:25:26;14.63;;;8.20;;
52180;SDS011;38158;53.338;6.514;2022-09-09T07:27:54;17.83;;;8.27;;
52180;SDS011;38158;53.338;6.514;2022-09-09T07:30:19;11.60;;;7.30;;
52180;SDS011;38158;53.338;6.514;2022-09-09T07:32:46;13.07;;;7.87;;
52180;SDS011;38158;53.338;6.514;2022-09-09T07:35:11;15.93;;;7.75;;
52180;SDS011;38158;53.338;6.514;2022-09-09T07:37:37;12.57;;;7.43;;
52180;SDS011;38158;53.338;6.514;2022-09-09T07:40:03;10.05;;;6.43;;
52180;SDS011;38158;53.338;6.514;2022-09-09T07:44:55;11.85;;;6.45;;
52180;SDS011;38158;53.338;6.514;2022-09-09T07:47:21;11.43;;;6.38;;
52180;SDS011;38158;53.338;6.514;2022-09-09T07:49:49;10.88;;;6.68;;
52180;SDS011;38158;53.338;6.514;2022-09-09T07:52:15;9.13;;;6.22;;
52180;SDS011;38158;53.338;6.514;2022-09-09T07:54:41;10.05;;;5.95;;
52180;SDS011;38158;53.338;6.514;2022-09-09T07:57:07;8.43;;;6.05;;
52180;SDS011;38158;53.338;6.514;2022-09-09T07:59:33;11.80;;;6.18;;
52180;SDS011;38158;53.338;6.514;2022-09-09T08:01:59;11.70;;;5.90;;
52180;SDS011;38158;53.338;6.514;2022-09-09T08:04:25;10.13;;;5.72;;
52180;SDS011;38158;53.338;6.514;2022-09-09T08:06:54;10.07;;;5.70;;
52180;SDS011;38158;53.338;6.514;2022-09-09T08:09:22;9.40;;;5.90;;
52180;SDS011;38158;53.338;6.514;2022-09-09T08:11:54;11.63;;;5.93;;
52180;SDS011;38158;53.338;6.514;2022-09-09T08:14:24;11.20;;;5.40;;
52180;SDS011;38158;53.338;6.514;2022-09-09T08:16:50;20.92;;;8.98;;
52180;SDS011;38158;53.338;6.514;2022-09-09T08:19:18;29.58;;;12.75;;
52180;SDS011;38158;53.338;6.514;2022-09-09T08:21:44;17.42;;;6.78;;
52180;SDS011;38158;53.338;6.514;2022-09-09T08:24:10;12.77;;;6.10;;
52180;SDS011;38158;53.338;6.514;2022-09-09T08:29:04;9.18;;;4.88;;
52180;SDS011;38158;53.338;6.514;2022-09-09T08:31:35;10.70;;;4.70;;
52180;SDS011;38158;53.338;6.514;2022-09-09T08:34:03;11.02;;;6.00;;
52180;SDS011;38158;53.338;6.514;2022-09-09T08:36:31;8.85;;;4.93;;
52180;SDS011;38158;53.338;6.514;2022-09-09T08:38:58;9.27;;;4.40;;
52180;SDS011;38158;53.338;6.514;2022-09-09T09:08:48;8.27;;;4.45;;
52180;SDS011;38158;53.338;6.514;2022-09-09T09:11:37;6.60;;;3.88;;
52180;SDS011;38158;53.338;6.514;2022-09-09T09:14:14;9.13;;;4.28;;
52180;SDS011;38158;53.338;6.514;2022-09-09T09:19:28;10.02;;;4.72;;
52180;SDS011;38158;53.338;6.514;2022-09-09T09:24:27;8.95;;;3.80;;
52180;SDS011;38158;53.338;6.514;2022-09-09T09:26:57;10.93;;;4.18;;
52180;SDS011;38158;53.338;6.514;2022-09-09T09:29:26;8.30;;;3.63;;
52180;SDS011;38158;53.338;6.514;2022-09-09T09:31:52;8.25;;;3.55;;
52180;SDS011;38158;53.338;6.514;2022-09-09T09:34:20;6.93;;;3.10;;
52180;SDS011;38158;53.338;6.514;2022-09-09T09:36:52;8.23;;;3.17;;
52180;SDS011;38158;53.338;6.514;2022-09-09T09:39:27;8.32;;;3.72;;
52180;SDS011;38158;53.338;6.514;2022-09-09T09:42:10;12.25;;;3.53;;
52180;SDS011;38158;53.338;6.514;2022-09-09T09:44:40;9.32;;;4.10;;
52180;SDS011;38158;53.338;6.514;2022-09-09T09:47:17;8.65;;;3.28;;
52180;SDS011;38158;53.338;6.514;2022-09-09T09:52:20;8.98;;;3.35;;
52180;SDS011;38158;53.338;6.514;2022-09-09T09:54:49;9.63;;;3.30;;
52180;SDS011;38158;53.338;6.514;2022-09-09T09:57:16;11.45;;;3.53;;
52180;SDS011;38158;53.338;6.514;2022-09-09T09:59:43;8.90;;;3.47;;
52180;SDS011;38158;53.338;6.514;2022-09-09T10:04:44;9.63;;;3.63;;
52180;SDS011;38158;53.338;6.514;2022-09-09T10:07:15;8.45;;;3.65;;
52180;SDS011;38158;53.338;6.514;2022-09-09T10:09:44;11.52;;;3.20;;
52180;SDS011;38158;53.338;6.514;2022-09-09T10:12:19;13.45;;;3.42;;
52180;SDS011;38158;53.338;6.514;2022-09-09T10:23:29;9.77;;;3.08;;
52180;SDS011;38158;53.338;6.514;2022-09-09T10:34:15;12.00;;;2.50;;
52180;SDS011;38158;53.338;6.514;2022-09-09T10:36:53;11.13;;;2.53;;
52180;SDS011;38158;53.338;6.514;2022-09-09T10:39:31;9.23;;;2.55;;
52180;SDS011;38158;53.338;6.514;2022-09-09T10:42:05;11.15;;;2.22;;
52180;SDS011;38158;53.338;6.514;2022-09-09T10:52:32;10.85;;;2.15;;
52180;SDS011;38158;53.338;6.514;2022-09-09T10:55:16;8.65;;;2.45;;
52180;SDS011;38158;53.338;6.514;2022-09-09T10:57:51;8.68;;;2.15;;
52180;SDS011;38158;53.338;6.514;2022-09-09T11:00:20;7.15;;;1.77;;
52180;SDS011;38158;53.338;6.514;2022-09-09T11:02:54;11.50;;;2.40;;
52180;SDS011;38158;53.338;6.514;2022-09-09T11:08:04;9.68;;;2.03;;
52180;SDS011;38158;53.338;6.514;2022-09-09T11:10:43;8.38;;;1.60;;
52180;SDS011;38158;53.338;6.514;2022-09-09T11:13:24;8.85;;;1.30;;
52180;SDS011;38158;53.338;6.514;2022-09-09T11:21:05;5.93;;;0.85;;
52180;SDS011;38158;53.338;6.514;2022-09-09T11:23:42;6.43;;;1.10;;
52180;SDS011;38158;53.338;6.514;2022-09-09T11:26:14;6.32;;;1.35;;
52180;SDS011;38158;53.338;6.514;2022-09-09T11:31:28;5.05;;;1.17;;
52180;SDS011;38158;53.338;6.514;2022-09-09T11:37:00;5.28;;;1.08;;
52180;SDS011;38158;53.338;6.514;2022-09-09T11:42:22;8.02;;;1.42;;
52180;SDS011;38158;53.338;6.514;2022-09-09T11:44:49;5.78;;;1.30;;
52180;SDS011;38158;53.338;6.514;2022-09-09T11:50:06;7.72;;;1.58;;
52180;SDS011;38158;53.338;6.514;2022-09-09T11:53:02;7.53;;;1.50;;
52180;SDS011;38158;53.338;6.514;2022-09-09T11:58:26;4.28;;;1.10;;
52180;SDS011;38158;53.338;6.514;2022-09-09T12:00:57;7.25;;;1.35;;
52180;SDS011;38158;53.338;6.514;2022-09-09T12:03:43;8.00;;;1.27;;
52180;SDS011;38158;53.338;6.514;2022-09-09T12:08:43;4.80;;;1.30;;
52180;SDS011;38158;53.338;6.514;2022-09-09T12:11:11;7.20;;;1.00;;
52180;SDS011;38158;53.338;6.514;2022-09-09T12:13:53;7.55;;;1.15;;
52180;SDS011;38158;53.338;6.514;2022-09-09T12:16:32;9.23;;;1.58;;
52180;SDS011;38158;53.338;6.514;2022-09-09T12:19:03;7.50;;;1.50;;
52180;SDS011;38158;53.338;6.514;2022-09-09T12:24:07;7.65;;;1.25;;
52180;SDS011;38158;53.338;6.514;2022-09-09T12:26:57;4.18;;;1.25;;
52180;SDS011;38158;53.338;6.514;2022-09-09T12:32:16;6.50;;;1.20;;
52180;SDS011;38158;53.338;6.514;2022-09-09T12:34:53;7.90;;;1.23;;
52180;SDS011;38158;53.338;6.514;2022-09-09T12:37:27;7.78;;;1.42;;
52180;SDS011;38158;53.338;6.514;2022-09-09T12:39:58;6.10;;;1.20;;
52180;SDS011;38158;53.338;6.514;2022-09-09T12:42:27;6.78;;;1.40;;
52180;SDS011;38158;53.338;6.514;2022-09-09T12:44:56;5.20;;;1.10;;
52180;SDS011;38158;53.338;6.514;2022-09-09T12:47:37;7.63;;;1.30;;
52180;SDS011;38158;53.338;6.514;2022-09-09T12:50:19;6.85;;;1.23;;
52180;SDS011;38158;53.338;6.514;2022-09-09T12:52:48;6.85;;;1.13;;
52180;SDS011;38158;53.338;6.514;2022-09-09T12:55:20;5.97;;;1.08;;
52180;SDS011;38158;53.338;6.514;2022-09-09T12:57:50;6.82;;;0.98;;
52180;SDS011;38158;53.338;6.514;2022-09-09T13:00:23;8.35;;;1.75;;
52180;SDS011;38158;53.338;6.514;2022-09-09T13:02:51;7.88;;;1.40;;
52180;SDS011;38158;53.338;6.514;2022-09-09T13:08:02;4.43;;;0.88;;
52180;SDS011;38158;53.338;6.514;2022-09-09T13:10:31;4.57;;;0.73;;
52180;SDS011;38158;53.338;6.514;2022-09-09T13:12:59;5.38;;;0.90;;
52180;SDS011;38158;53.338;6.514;2022-09-09T13:15:26;3.92;;;0.63;;
52180;SDS011;38158;53.338;6.514;2022-09-09T13:17:55;8.57;;;1.02;;
52180;SDS011;38158;53.338;6.514;2022-09-09T13:20:25;6.90;;;1.15;;
52180;SDS011;38158;53.338;6.514;2022-09-09T13:22:52;6.85;;;1.38;;
52180;SDS011;38158;53.338;6.514;2022-09-09T13:25:21;4.32;;;1.08;;
52180;SDS011;38158;53.338;6.514;2022-09-09T13:35:47;7.72;;;0.88;;
52180;SDS011;38158;53.338;6.514;2022-09-09T13:38:14;5.22;;;1.08;;
52180;SDS011;38158;53.338;6.514;2022-09-09T13:40:44;5.85;;;1.00;;
52180;SDS011;38158;53.338;6.514;2022-09-09T13:43:23;5.90;;;0.80;;
52180;SDS011;38158;53.338;6.514;2022-09-09T13:45:57;6.45;;;1.20;;
52180;SDS011;38158;53.338;6.514;2022-09-09T13:48:25;4.07;;;1.02;;
52180;SDS011;38158;53.338;6.514;2022-09-09T13:50:58;6.18;;;0.93;;
52180;SDS011;38158;53.338;6.514;2022-09-09T13:53:25;8.57;;;0.80;;
52180;SDS011;38158;53.338;6.514;2022-09-09T13:55:51;9.07;;;1.03;;
52180;SDS011;38158;53.338;6.514;2022-09-09T13:58:18;5.72;;;0.90;;
52180;SDS011;38158;53.338;6.514;2022-09-09T14:00:44;9.50;;;1.30;;
52180;SDS011;38158;53.338;6.514;2022-09-09T14:03:10;8.25;;;1.60;;
52180;SDS011;38158;53.338;6.514;2022-09-09T14:05:36;4.20;;;1.25;;
52180;SDS011;38158;53.338;6.514;2022-09-09T14:08:06;7.77;;;1.10;;
52180;SDS011;38158;53.338;6.514;2022-09-09T14:10:32;6.43;;;1.10;;
52180;SDS011;38158;53.338;6.514;2022-09-09T14:13:02;6.00;;;1.30;;
52180;SDS011;38158;53.338;6.514;2022-09-09T14:15:28;5.70;;;1.23;;
52180;SDS011;38158;53.338;6.514;2022-09-09T14:17:54;10.82;;;1.88;;
52180;SDS011;38158;53.338;6.514;2022-09-09T14:20:20;7.20;;;1.30;;
52180;SDS011;38158;53.338;6.514;2022-09-09T14:22:46;11.67;;;1.50;;
52180;SDS011;38158;53.338;6.514;2022-09-09T14:25:12;6.38;;;1.13;;
52180;SDS011;38158;53.338;6.514;2022-09-09T14:27:40;7.28;;;1.35;;
52180;SDS011;38158;53.338;6.514;2022-09-09T14:30:07;7.82;;;1.60;;
52180;SDS011;38158;53.338;6.514;2022-09-09T14:32:33;5.85;;;1.40;;
52180;SDS011;38158;53.338;6.514;2022-09-09T14:34:59;9.80;;;1.40;;
52180;SDS011;38158;53.338;6.514;2022-09-09T14:37:25;7.40;;;1.52;;
52180;SDS011;38158;53.338;6.514;2022-09-09T14:39:52;7.50;;;1.10;;
52180;SDS011;38158;53.338;6.514;2022-09-09T14:42:18;5.78;;;1.00;;
52180;SDS011;38158;53.338;6.514;2022-09-09T14:44:44;6.22;;;0.93;;
52180;SDS011;38158;53.338;6.514;2022-09-09T14:47:10;5.68;;;1.17;;
52180;SDS011;38158;53.338;6.514;2022-09-09T14:49:36;6.10;;;1.23;;
52180;SDS011;38158;53.338;6.514;2022-09-09T14:52:02;4.07;;;0.85;;
52180;SDS011;38158;53.338;6.514;2022-09-09T14:54:29;7.00;;;1.00;;
52180;SDS011;38158;53.338;6.514;2022-09-09T14:56:55;5.75;;;1.27;;
52180;SDS011;38158;53.338;6.514;2022-09-09T14:59:21;6.72;;;1.13;;
52180;SDS011;38158;53.338;6.514;2022-09-09T15:01:47;7.90;;;1.10;;
52180;SDS011;38158;53.338;6.514;2022-09-09T15:04:13;8.95;;;1.98;;
52180;SDS011;38158;53.338;6.514;2022-09-09T15:06:41;7.57;;;1.25;;
52180;SDS011;38158;53.338;6.514;2022-09-09T15:09:09;8.93;;;1.58;;
52180;SDS011;38158;53.338;6.514;2022-09-09T15:11:36;5.32;;;1.40;;
52180;SDS011;38158;53.338;6.514;2022-09-09T15:14:03;5.43;;;1.25;;
52180;SDS011;38158;53.338;6.514;2022-09-09T15:16:29;6.55;;;1.25;;
52180;SDS011;38158;53.338;6.514;2022-09-09T15:18:57;4.88;;;1.45;;
52180;SDS011;38158;53.338;6.514;2022-09-09T15:23:50;4.13;;;1.25;;
52180;SDS011;38158;53.338;6.514;2022-09-09T15:26:17;3.90;;;1.23;;
52180;SDS011;38158;53.338;6.514;2022-09-09T15:28:44;9.20;;;5.45;;
52180;SDS011;38158;53.338;6.514;2022-09-09T15:33:49;4.47;;;0.70;;
52180;SDS011;38158;53.338;6.514;2022-09-09T15:38:43;1.83;;;0.50;;
52180;SDS011;38158;53.338;6.514;2022-09-09T15:41:09;2.85;;;0.73;;
52180;SDS011;38158;53.338;6.514;2022-09-09T15:43:35;3.25;;;0.68;;
52180;SDS011;38158;53.338;6.514;2022-09-09T15:46:05;5.60;;;1.17;;
52180;SDS011;38158;53.338;6.514;2022-09-09T15:48:49;3.72;;;1.17;;
52180;SDS011;38158;53.338;6.514;2022-09-09T15:51:15;6.78;;;1.27;;
52180;SDS011;38158;53.338;6.514;2022-09-09T15:53:41;4.47;;;0.90;;
52180;SDS011;38158;53.338;6.514;2022-09-09T15:56:08;5.82;;;0.90;;
52180;SDS011;38158;53.338;6.514;2022-09-09T15:58:34;3.03;;;0.80;;
52180;SDS011;38158;53.338;6.514;2022-09-09T16:01:01;3.80;;;0.90;;
52180;SDS011;38158;53.338;6.514;2022-09-09T16:03:29;5.95;;;0.95;;
52180;SDS011;38158;53.338;6.514;2022-09-09T16:05:58;4.68;;;1.17;;
52180;SDS011;38158;53.338;6.514;2022-09-09T16:08:25;8.45;;;1.38;;
52180;SDS011;38158;53.338;6.514;2022-09-09T16:10:56;5.13;;;1.10;;
52180;SDS011;38158;53.338;6.514;2022-09-09T16:13:28;5.82;;;1.30;;
52180;SDS011;38158;53.338;6.514;2022-09-09T16:15:57;5.40;;;1.05;;
52180;SDS011;38158;53.338;6.514;2022-09-09T16:18:23;5.13;;;1.23;;
52180;SDS011;38158;53.338;6.514;2022-09-09T16:20:55;6.10;;;1.30;;
52180;SDS011;38158;53.338;6.514;2022-09-09T16:23:21;4.13;;;1.27;;
52180;SDS011;38158;53.338;6.514;2022-09-09T16:25:53;5.55;;;1.30;;
52180;SDS011;38158;53.338;6.514;2022-09-09T16:28:19;4.60;;;1.50;;
52180;SDS011;38158;53.338;6.514;2022-09-09T16:30:45;4.80;;;1.27;;
52180;SDS011;38158;53.338;6.514;2022-09-09T16:33:11;6.47;;;1.55;;
52180;SDS011;38158;53.338;6.514;2022-09-09T16:35:39;6.20;;;1.60;;
52180;SDS011;38158;53.338;6.514;2022-09-09T16:38:05;4.72;;;1.58;;
52180;SDS011;38158;53.338;6.514;2022-09-09T16:40:35;6.10;;;1.63;;
52180;SDS011;38158;53.338;6.514;2022-09-09T16:43:01;5.20;;;1.15;;
52180;SDS011;38158;53.338;6.514;2022-09-09T16:45:27;7.00;;;1.33;;
52180;SDS011;38158;53.338;6.514;2022-09-09T16:47:54;5.35;;;1.17;;
52180;SDS011;38158;53.338;6.514;2022-09-09T16:50:19;5.00;;;1.42;;
52180;SDS011;38158;53.338;6.514;2022-09-09T16:52:45;5.07;;;1.10;;
52180;SDS011;38158;53.338;6.514;2022-09-09T16:55:11;5.30;;;1.30;;
52180;SDS011;38158;53.338;6.514;2022-09-09T16:57:36;4.22;;;1.00;;
52180;SDS011;38158;53.338;6.514;2022-09-09T17:00:03;3.92;;;1.00;;
52180;SDS011;38158;53.338;6.514;2022-09-09T17:02:31;5.22;;;1.40;;
52180;SDS011;38158;53.338;6.514;2022-09-09T17:04:57;3.42;;;1.10;;
52180;SDS011;38158;53.338;6.514;2022-09-09T17:07:23;5.03;;;1.45;;
52180;SDS011;38158;53.338;6.514;2022-09-09T17:09:48;4.95;;;1.30;;
52180;SDS011;38158;53.338;6.514;2022-09-09T17:12:14;5.22;;;1.35;;
52180;SDS011;38158;53.338;6.514;2022-09-09T17:14:41;3.13;;;1.17;;
52180;SDS011;38158;53.338;6.514;2022-09-09T17:17:07;4.60;;;1.58;;
52180;SDS011;38158;53.338;6.514;2022-09-09T17:19:33;4.63;;;1.73;;
52180;SDS011;38158;53.338;6.514;2022-09-09T17:21:59;5.55;;;1.98;;
52180;SDS011;38158;53.338;6.514;2022-09-09T17:24:28;5.80;;;2.33;;
52180;SDS011;38158;53.338;6.514;2022-09-09T17:26:54;6.88;;;2.08;;
52180;SDS011;38158;53.338;6.514;2022-09-09T17:29:20;8.07;;;2.03;;
52180;SDS011;38158;53.338;6.514;2022-09-09T17:31:46;7.03;;;2.10;;
52180;SDS011;38158;53.338;6.514;2022-09-09T17:34:12;3.50;;;1.33;;
52180;SDS011;38158;53.338;6.514;2022-09-09T17:36:38;6.72;;;1.70;;
52180;SDS011;38158;53.338;6.514;2022-09-09T17:39:05;10.25;;;2.47;;